createdAt,value
2023-01-05T00:01:36.724Z,12.00
2023-01-05T00:04:05.333Z,12.00
2023-01-05T00:06:34.043Z,11.90
2023-01-05T00:09:04.065Z,12.00
2023-01-05T00:11:50.316Z,12.00
2023-01-05T00:14:38.716Z,12.00
2023-01-05T00:17:25.933Z,12.10
2023-01-05T00:20:12.243Z,12.10
2023-01-05T00:22:46.300Z,12.10
2023-01-05T00:25:17.279Z,12.00
2023-01-05T00:27:48.297Z,11.90
2023-01-05T00:30:17.569Z,11.90
2023-01-05T00:32:45.863Z,11.90
2023-01-05T00:35:15.558Z,12.00
2023-01-05T00:37:44.819Z,12.00
2023-01-05T00:40:16.261Z,12.00
2023-01-05T00:42:44.595Z,11.90
2023-01-05T00:45:14.569Z,11.90
2023-01-05T00:47:43.114Z,11.90
2023-01-05T00:50:14.323Z,12.00
2023-01-05T00:52:42.312Z,12.00
2023-01-05T00:55:10.574Z,12.00
2023-01-05T00:57:40.099Z,12.00
2023-01-05T01:00:13.843Z,12.00
2023-01-05T01:02:41.730Z,12.00
2023-01-05T01:05:09.953Z,11.90
2023-01-05T01:07:38.032Z,11.90
2023-01-05T01:10:07.489Z,11.90
2023-01-05T01:12:36.037Z,11.90
2023-01-05T01:15:06.714Z,11.90
2023-01-05T01:17:35.068Z,11.90
2023-01-05T01:20:03.163Z,12.00
2023-01-05T01:22:30.936Z,11.90
2023-01-05T01:24:58.682Z,11.90
2023-01-05T01:27:27.171Z,11.80
2023-01-05T01:29:54.893Z,11.80
2023-01-05T01:32:24.725Z,11.90
2023-01-05T01:34:52.589Z,11.90
2023-01-05T01:37:20.343Z,12.00
2023-01-05T01:39:51.735Z,11.90
2023-01-05T01:42:22.616Z,11.90
2023-01-05T01:44:57.632Z,11.90
2023-01-05T01:47:37.829Z,11.90
2023-01-05T01:50:11.014Z,11.90
2023-01-05T01:52:40.633Z,11.90
2023-01-05T01:55:08.904Z,11.90
2023-01-05T01:57:38.710Z,11.90
2023-01-05T02:00:09.544Z,11.90
2023-01-05T02:02:49.423Z,11.90
2023-01-05T02:05:24.167Z,11.90
2023-01-05T02:07:51.998Z,11.90
2023-01-05T02:10:32.089Z,11.80
2023-01-05T02:13:12.640Z,11.80
2023-01-05T02:15:49.022Z,11.80
2023-01-05T02:18:33.805Z,11.80
2023-01-05T02:21:17.315Z,11.80
2023-01-05T02:24:12.661Z,11.80
2023-01-05T02:27:08.483Z,11.80
2023-01-05T02:29:58.652Z,11.80
2023-01-05T02:32:34.903Z,11.90
2023-01-05T02:35:11.274Z,11.90
2023-01-05T02:37:45.746Z,11.90
2023-01-05T02:40:21.188Z,11.90
2023-01-05T02:42:53.466Z,11.90
2023-01-05T02:45:23.652Z,11.90
2023-01-05T02:47:58.391Z,11.90
2023-01-05T02:50:31.789Z,11.90
2023-01-05T02:53:06.811Z,11.80
2023-01-05T02:55:39.421Z,11.80
2023-01-05T02:58:12.691Z,11.70
2023-01-05T03:00:47.914Z,11.80
2023-01-05T03:03:22.763Z,11.80
2023-01-05T03:05:58.698Z,11.80
2023-01-05T03:08:32.949Z,11.80
2023-01-05T03:11:27.155Z,11.90
2023-01-05T03:13:59.792Z,11.90
2023-01-05T03:16:31.606Z,11.90
2023-01-05T03:19:23.824Z,11.90
2023-01-05T03:22:12.518Z,11.90
2023-01-05T03:25:03.563Z,11.90
2023-01-05T03:27:54.785Z,11.80
2023-01-05T03:30:53.086Z,11.70
2023-01-05T03:33:48.683Z,11.70
2023-01-05T03:36:23.723Z,11.70
2023-01-05T03:38:55.149Z,11.80
2023-01-05T03:41:24.902Z,11.80
2023-01-05T03:43:56.201Z,11.90
2023-01-05T03:46:25.427Z,11.90
2023-01-05T03:48:54.433Z,11.90
2023-01-05T03:51:24.352Z,11.90
2023-01-05T03:53:52.432Z,11.90
2023-01-05T03:56:20.942Z,11.90
2023-01-05T03:58:49.622Z,11.90
2023-01-05T04:01:18.102Z,11.90
2023-01-05T04:03:46.402Z,11.80
2023-01-05T04:06:14.983Z,11.80
2023-01-05T04:08:44.705Z,11.80
2023-01-05T04:11:15.104Z,11.80
2023-01-05T04:13:47.779Z,11.80
2023-01-05T04:16:17.615Z,11.80
2023-01-05T04:18:46.268Z,11.80
2023-01-05T04:21:17.701Z,11.80
2023-01-05T04:23:48.291Z,11.80
2023-01-05T04:26:17.132Z,11.80
2023-01-05T04:28:50.128Z,11.90
2023-01-05T04:31:20.921Z,11.90
2023-01-05T04:33:50.786Z,11.80
2023-01-05T04:36:22.271Z,11.80
2023-01-05T04:38:52.216Z,11.80
2023-01-05T04:41:21.838Z,11.90
2023-01-05T04:43:52.681Z,11.80
2023-01-05T04:46:21.606Z,11.80
2023-01-05T04:48:51.909Z,11.90
2023-01-05T04:51:22.222Z,11.80
2023-01-05T04:53:51.795Z,11.80
2023-01-05T04:56:23.583Z,11.80
2023-01-05T04:58:51.879Z,11.70
2023-01-05T05:01:20.503Z,11.70
2023-01-05T05:03:53.330Z,11.70
2023-01-05T05:06:23.963Z,11.70
2023-01-05T05:08:55.731Z,11.70
2023-01-05T05:11:25.353Z,11.70
2023-01-05T05:13:53.349Z,11.70
2023-01-05T05:16:21.541Z,11.70
2023-01-05T05:18:50.856Z,11.70
2023-01-05T05:21:23.737Z,11.80
2023-01-05T05:23:51.884Z,11.80
2023-01-05T05:26:22.090Z,11.80
2023-01-05T05:28:51.435Z,11.70
2023-01-05T05:31:19.490Z,11.70
2023-01-05T05:33:47.623Z,11.70
2023-01-05T05:36:16.271Z,11.70
2023-01-05T05:38:44.381Z,11.70
2023-01-05T05:41:12.321Z,11.70
2023-01-05T05:43:41.974Z,11.70
2023-01-05T05:46:09.964Z,11.70
2023-01-05T05:48:38.178Z,11.80
2023-01-05T05:51:06.453Z,11.80
2023-01-05T05:53:34.566Z,11.80
2023-01-05T05:56:02.558Z,11.70
2023-01-05T05:58:30.724Z,11.80
2023-01-05T06:01:00.355Z,11.80
2023-01-05T06:03:28.435Z,11.80
2023-01-05T06:05:56.536Z,11.80
2023-01-05T06:08:25.109Z,11.80
2023-01-05T06:10:53.262Z,11.80
2023-01-05T06:13:21.308Z,11.80
2023-01-05T06:15:49.686Z,11.80
2023-01-05T06:18:19.181Z,11.80
2023-01-05T06:20:47.344Z,11.70
2023-01-05T06:23:15.510Z,11.70
2023-01-05T06:25:44.162Z,11.70
2023-01-05T06:28:16.979Z,11.70
2023-01-05T06:30:48.694Z,11.70
2023-01-05T06:33:16.866Z,11.70
2023-01-05T06:35:46.447Z,11.70
2023-01-05T06:38:16.444Z,11.70
2023-01-05T06:40:46.516Z,11.80
2023-01-05T06:43:14.727Z,11.70
2023-01-05T06:45:42.886Z,11.80
2023-01-05T06:48:11.085Z,11.80
2023-01-05T06:50:39.051Z,11.80
2023-01-05T06:53:08.786Z,11.70
2023-01-05T06:55:36.797Z,11.70
2023-01-05T06:58:04.769Z,11.80
2023-01-05T07:00:32.848Z,11.70
2023-01-05T07:03:01.041Z,11.70
2023-01-05T07:05:29.080Z,11.70
2023-01-05T07:07:57.336Z,11.70
2023-01-05T07:10:26.745Z,11.70
2023-01-05T07:12:54.809Z,11.70
2023-01-05T07:15:23.062Z,11.70
2023-01-05T07:17:51.169Z,11.70
2023-01-05T07:20:19.197Z,11.70
2023-01-05T07:22:47.355Z,11.70
2023-01-05T07:25:15.385Z,11.70
2023-01-05T07:27:44.796Z,11.70
2023-01-05T07:30:13.881Z,11.70
2023-01-05T07:32:42.016Z,11.70
2023-01-05T07:35:10.427Z,11.70
2023-01-05T07:37:38.544Z,11.80
2023-01-05T07:40:07.804Z,11.80
2023-01-05T07:42:35.981Z,11.80
2023-01-05T07:45:07.944Z,11.80
2023-01-05T07:47:38.888Z,11.80
2023-01-05T07:50:07.995Z,11.80
2023-01-05T07:52:35.925Z,11.80
2023-01-05T07:55:04.098Z,11.70
2023-01-05T07:57:32.153Z,11.70
2023-01-05T08:00:00.175Z,11.80
2023-01-05T08:02:35.482Z,11.80
2023-01-05T08:05:04.449Z,11.80
2023-01-05T08:07:32.322Z,11.90
2023-01-05T08:10:18.581Z,11.90
2023-01-05T08:13:04.959Z,11.90
2023-01-05T08:15:33.031Z,11.90
2023-01-05T08:18:02.319Z,12.00
2023-01-05T08:20:30.396Z,12.00
2023-01-05T08:22:58.564Z,12.00
2023-01-05T08:25:26.736Z,12.00
2023-01-05T08:27:54.775Z,11.90
2023-01-05T08:30:22.865Z,11.80
2023-01-05T08:32:50.924Z,11.80
2023-01-05T08:35:20.553Z,11.90
2023-01-05T08:37:48.551Z,11.90
2023-01-05T08:40:16.810Z,12.00
2023-01-05T08:42:48.425Z,12.00
2023-01-05T08:45:16.987Z,12.10
2023-01-05T08:47:45.158Z,12.20
2023-01-05T08:50:13.292Z,12.20
2023-01-05T08:52:42.926Z,12.20
2023-01-05T08:55:11.106Z,12.20
2023-01-05T08:57:39.218Z,12.30
2023-01-05T09:00:08.558Z,12.40
2023-01-05T09:02:36.761Z,12.40
2023-01-05T09:05:05.527Z,12.40
2023-01-05T09:07:33.767Z,12.40
2023-01-05T09:10:06.605Z,12.40
2023-01-05T09:12:36.675Z,12.40
2023-01-05T09:15:07.856Z,12.50
2023-01-05T09:17:39.015Z,12.50
2023-01-05T09:20:07.992Z,12.60
2023-01-05T09:22:36.627Z,12.60
2023-01-05T09:25:07.074Z,12.60
2023-01-05T09:27:36.502Z,12.60
2023-01-05T09:30:05.523Z,12.60
2023-01-05T09:32:33.743Z,12.60
2023-01-05T09:35:01.709Z,12.60
2023-01-05T09:37:29.787Z,12.70
2023-01-05T09:39:57.865Z,12.70
2023-01-05T09:42:31.212Z,12.80
2023-01-05T09:45:05.272Z,12.80
2023-01-05T09:47:37.061Z,12.90
2023-01-05T09:50:06.993Z,12.90
2023-01-05T09:52:38.238Z,13.00
2023-01-05T09:55:15.882Z,13.00
2023-01-05T09:57:54.021Z,13.10
2023-01-05T10:00:24.475Z,13.20
2023-01-05T10:02:57.406Z,13.40
2023-01-05T10:05:28.072Z,13.50
2023-01-05T10:08:02.326Z,13.40
2023-01-05T10:10:43.889Z,13.40
2023-01-05T10:13:25.368Z,13.40
2023-01-05T10:15:55.227Z,13.40
2023-01-05T10:18:25.927Z,13.50
2023-01-05T10:21:05.046Z,13.50
2023-01-05T10:23:56.593Z,13.70
2023-01-05T10:26:30.325Z,13.80
2023-01-05T10:29:12.276Z,14.00
2023-01-05T10:31:47.272Z,14.20
2023-01-05T10:34:22.610Z,14.30
2023-01-05T10:37:12.994Z,14.30
2023-01-05T10:40:00.985Z,14.30
2023-01-05T10:42:48.047Z,14.30
2023-01-05T10:45:18.048Z,14.40
2023-01-05T10:47:47.288Z,14.40
2023-01-05T10:50:29.837Z,14.40
2023-01-05T10:52:58.674Z,14.30
2023-01-05T10:55:30.467Z,14.40
2023-01-05T10:57:58.480Z,14.30
2023-01-05T11:00:41.994Z,14.30
2023-01-05T11:03:16.299Z,14.30
2023-01-05T11:05:46.911Z,14.30
2023-01-05T11:08:17.912Z,14.40
2023-01-05T11:10:53.230Z,14.40
2023-01-05T11:13:31.027Z,14.40
2023-01-05T11:16:07.634Z,14.50
2023-01-05T11:18:36.547Z,14.50
2023-01-05T11:21:11.412Z,14.60
2023-01-05T11:23:41.099Z,14.60
2023-01-05T11:26:37.140Z,14.60
2023-01-05T11:29:15.912Z,14.60
2023-01-05T11:31:50.376Z,14.80
2023-01-05T11:34:29.698Z,14.90
2023-01-05T11:37:03.937Z,15.00
2023-01-05T11:39:39.342Z,15.00
2023-01-05T11:42:16.371Z,15.00
2023-01-05T11:44:50.884Z,15.10
2023-01-05T11:47:24.129Z,15.10
2023-01-05T11:50:09.433Z,15.20
2023-01-05T11:52:40.202Z,15.30
2023-01-05T11:55:34.118Z,15.30
2023-01-05T11:58:23.211Z,15.30
2023-01-05T12:01:35.733Z,15.30
2023-01-05T12:04:10.651Z,15.40
2023-01-05T12:07:06.941Z,15.50
2023-01-05T12:09:37.115Z,15.60
2023-01-05T12:12:24.937Z,15.60
2023-01-05T12:15:03.681Z,15.60
2023-01-05T12:17:39.767Z,15.70
2023-01-05T12:20:29.594Z,15.60
2023-01-05T12:23:28.358Z,15.60
2023-01-05T12:26:01.951Z,15.60
2023-01-05T12:28:56.591Z,15.60
2023-01-05T12:35:00.425Z,15.70
2023-01-05T12:37:40.393Z,15.70
2023-01-05T12:40:33.454Z,15.70
2023-01-05T12:43:04.056Z,15.70
2023-01-05T12:46:03.625Z,15.70
2023-01-05T12:48:34.928Z,15.70
2023-01-05T12:51:08.905Z,15.60
2023-01-05T12:53:48.312Z,15.60
2023-01-05T12:56:23.575Z,15.70
2023-01-05T12:59:09.787Z,15.60
2023-01-05T13:01:43.577Z,15.60
2023-01-05T13:04:27.400Z,15.70
2023-01-05T13:06:59.629Z,15.60
2023-01-05T13:09:32.791Z,15.60
2023-01-05T13:12:07.031Z,15.50
2023-01-05T13:14:37.079Z,15.50
2023-01-05T13:17:12.453Z,15.40
2023-01-05T13:19:46.260Z,15.30
2023-01-05T13:22:20.559Z,15.30
2023-01-05T13:24:53.342Z,15.30
2023-01-05T13:27:21.301Z,15.30
2023-01-05T13:29:54.547Z,15.30
2023-01-05T13:32:36.237Z,15.30
2023-01-05T13:35:34.181Z,15.30
2023-01-05T13:38:34.845Z,15.20
2023-01-05T13:41:34.562Z,15.20
2023-01-05T13:44:34.722Z,15.10
2023-01-05T13:47:16.197Z,15.00
2023-01-05T13:50:14.637Z,15.00
2023-01-05T13:53:01.868Z,15.00
2023-01-05T13:55:31.406Z,15.00
2023-01-05T13:58:34.907Z,14.90
2023-01-05T14:01:10.003Z,14.80
2023-01-05T14:03:40.445Z,14.80
2023-01-05T14:06:17.812Z,14.80
2023-01-05T14:08:52.791Z,14.80
2023-01-05T14:11:22.333Z,14.80
2023-01-05T14:13:54.428Z,14.70
2023-01-05T14:16:54.357Z,14.70
2023-01-05T14:19:42.508Z,14.70
2023-01-05T14:22:38.427Z,14.70
2023-01-05T14:25:48.033Z,14.70
2023-01-05T14:28:44.581Z,14.60
2023-01-05T14:31:50.088Z,14.60
2023-01-05T14:34:20.054Z,14.60
2023-01-05T14:37:08.026Z,14.60
2023-01-05T14:39:42.569Z,14.60
2023-01-05T14:42:25.870Z,14.60
2023-01-05T14:44:59.933Z,14.60
2023-01-05T14:47:41.007Z,14.70
2023-01-05T14:50:28.419Z,14.70
2023-01-05T14:52:59.042Z,14.70
2023-01-05T14:55:39.389Z,14.70
2023-01-05T14:58:14.141Z,14.70
2023-01-05T15:00:47.774Z,14.80
2023-01-05T15:03:26.468Z,14.80
2023-01-05T15:06:00.072Z,14.70
2023-01-05T15:09:08.956Z,14.70
2023-01-05T15:12:09.431Z,14.70
2023-01-05T15:14:55.432Z,14.70
2023-01-05T15:17:49.782Z,14.70
2023-01-05T15:20:49.089Z,14.70
2023-01-05T15:23:51.070Z,14.70
2023-01-05T15:26:38.448Z,14.60
2023-01-05T15:29:50.763Z,14.60
2023-01-05T15:32:21.639Z,14.50
2023-01-05T15:34:55.528Z,14.40
2023-01-05T15:37:31.449Z,14.30
2023-01-05T15:40:04.469Z,14.30
2023-01-05T15:42:39.372Z,14.20
2023-01-05T15:45:15.167Z,14.10
2023-01-05T15:47:43.512Z,14.10
2023-01-05T15:50:19.567Z,14.00
2023-01-05T15:52:55.537Z,13.90
2023-01-05T15:55:25.278Z,13.90
2023-01-05T15:57:54.500Z,13.80
2023-01-05T16:00:25.383Z,13.80
2023-01-05T16:02:54.040Z,13.70
2023-01-05T16:05:23.392Z,13.70
2023-01-05T16:07:56.342Z,13.60
2023-01-05T16:10:29.005Z,13.60
2023-01-05T16:13:01.408Z,13.60
2023-01-05T16:15:36.336Z,13.50
2023-01-05T16:18:06.564Z,13.50
2023-01-05T16:20:37.103Z,13.50
2023-01-05T16:23:12.257Z,13.50
2023-01-05T16:25:43.379Z,13.50
2023-01-05T16:28:17.727Z,13.40
2023-01-05T16:30:47.276Z,13.40
2023-01-05T16:33:30.394Z,13.40
2023-01-05T16:36:09.406Z,13.30
2023-01-05T16:38:39.555Z,13.40
2023-01-05T16:41:22.695Z,13.30
2023-01-05T16:43:54.017Z,13.30
2023-01-05T16:46:31.387Z,13.30
2023-01-05T16:49:01.936Z,13.30
2023-01-05T16:51:42.838Z,13.30
2023-01-05T16:54:23.612Z,13.20
2023-01-05T16:56:58.025Z,13.20
2023-01-05T16:59:43.599Z,13.20
2023-01-05T17:02:44.612Z,13.10
2023-01-05T17:05:15.761Z,13.10
2023-01-05T17:07:45.789Z,13.10
2023-01-05T17:10:21.383Z,13.00
2023-01-05T17:12:58.330Z,13.00
2023-01-05T17:15:30.465Z,13.00
2023-01-05T17:17:59.033Z,13.00
2023-01-05T17:20:30.851Z,12.90
2023-01-05T17:23:01.800Z,12.90
2023-01-05T17:25:34.307Z,12.90
2023-01-05T17:28:02.459Z,12.90
2023-01-05T17:30:30.392Z,12.90
2023-01-05T17:32:58.442Z,12.80
2023-01-05T17:35:26.289Z,12.80
2023-01-05T17:37:54.364Z,12.80
2023-01-05T17:40:22.871Z,12.80
2023-01-05T17:42:52.608Z,12.80
2023-01-05T17:45:22.403Z,12.80
2023-01-05T17:47:51.266Z,12.80
2023-01-05T17:50:21.293Z,12.80
2023-01-05T17:52:49.327Z,12.80
2023-01-05T17:55:17.373Z,12.80
2023-01-05T17:57:45.315Z,12.80
2023-01-05T18:00:18.270Z,12.70
2023-01-05T18:02:49.906Z,12.70
2023-01-05T18:05:18.021Z,12.60
2023-01-05T18:07:46.733Z,12.60
2023-01-05T18:10:16.304Z,12.60
2023-01-05T18:12:44.575Z,12.50
2023-01-05T18:15:19.593Z,12.60
2023-01-05T18:17:47.720Z,12.60
2023-01-05T18:20:17.710Z,12.50
2023-01-05T18:22:47.961Z,12.50
2023-01-05T18:25:16.530Z,12.50
2023-01-05T18:27:45.075Z,12.50
2023-01-05T18:30:15.018Z,12.50
2023-01-05T18:32:43.227Z,12.40
2023-01-05T18:35:11.601Z,12.50
2023-01-05T18:37:40.234Z,12.40
2023-01-05T18:40:09.724Z,12.40
2023-01-05T18:42:38.427Z,12.40
2023-01-05T18:45:19.018Z,12.40
2023-01-05T18:47:58.965Z,12.40
2023-01-05T18:50:27.020Z,12.30
2023-01-05T18:52:55.041Z,12.30
2023-01-05T18:55:22.983Z,12.20
2023-01-05T18:57:50.972Z,12.20
2023-01-05T19:00:19.526Z,12.20
2023-01-05T19:02:47.627Z,12.20
2023-01-05T19:05:17.431Z,12.10
2023-01-05T19:07:45.363Z,12.10
2023-01-05T19:10:13.822Z,12.00
2023-01-05T19:12:41.872Z,12.00
2023-01-05T19:15:10.844Z,12.00
2023-01-05T19:17:38.758Z,12.00
2023-01-05T19:20:07.618Z,12.00
2023-01-05T19:22:37.161Z,11.80
2023-01-05T19:25:07.241Z,11.80
2023-01-05T19:27:35.173Z,11.70
2023-01-05T19:30:03.267Z,11.80
2023-01-05T19:32:33.192Z,11.80
2023-01-05T19:35:01.307Z,11.80
2023-01-05T19:37:29.334Z,11.80
2023-01-05T19:39:58.807Z,11.80
2023-01-05T19:42:27.044Z,11.80
2023-01-05T19:44:55.048Z,11.80
2023-01-05T19:47:23.102Z,11.80
2023-01-05T19:49:52.767Z,11.70
2023-01-05T19:52:21.102Z,11.70
2023-01-05T19:54:49.027Z,11.70
2023-01-05T19:57:18.768Z,11.70
2023-01-05T19:59:46.723Z,11.70
2023-01-05T20:02:14.799Z,11.70
2023-01-05T20:04:45.683Z,11.60
2023-01-05T20:07:14.108Z,11.70
2023-01-05T20:09:42.562Z,11.60
2023-01-05T20:12:14.702Z,11.60
2023-01-05T20:14:44.445Z,11.60
2023-01-05T20:17:13.498Z,11.50
2023-01-05T20:19:41.616Z,11.50
2023-01-05T20:22:14.476Z,11.50
2023-01-05T20:24:43.275Z,11.50
2023-01-05T20:27:13.149Z,11.50
2023-01-05T20:29:41.139Z,11.40
2023-01-05T20:32:13.456Z,11.40
2023-01-05T20:34:43.236Z,11.40
2023-01-05T20:37:11.889Z,11.40
2023-01-05T20:39:41.626Z,11.40
2023-01-05T20:42:11.265Z,11.40
2023-01-05T20:44:58.049Z,11.40
2023-01-05T20:47:29.886Z,11.30
2023-01-05T20:49:58.165Z,11.30
2023-01-05T20:52:26.115Z,11.30
2023-01-05T20:54:56.535Z,11.30
2023-01-05T20:57:24.850Z,11.30
2023-01-05T20:59:53.008Z,11.30
2023-01-05T21:02:24.443Z,11.30
2023-01-05T21:04:54.955Z,11.30
2023-01-05T21:07:23.945Z,11.30
2023-01-05T21:09:52.871Z,11.30
2023-01-05T21:12:21.601Z,11.30
2023-01-05T21:14:49.357Z,11.30
2023-01-05T21:17:18.076Z,11.20
2023-01-05T21:19:46.317Z,11.30
2023-01-05T21:22:15.770Z,11.30
2023-01-05T21:24:46.736Z,11.30
2023-01-05T21:27:16.861Z,11.30
2023-01-05T21:29:45.652Z,11.30
2023-01-05T21:32:13.451Z,11.30
2023-01-05T21:34:41.340Z,11.20
2023-01-05T21:37:09.430Z,11.20
2023-01-05T21:39:40.186Z,11.20
2023-01-05T21:42:26.469Z,11.10
2023-01-05T21:44:54.464Z,11.00
2023-01-05T21:47:24.642Z,11.00
2023-01-05T21:49:52.824Z,11.00
2023-01-05T21:52:39.480Z,11.00
2023-01-05T21:55:28.794Z,10.90
2023-01-05T21:57:57.684Z,10.90
2023-01-05T22:00:25.928Z,10.90
2023-01-05T22:02:54.094Z,10.90
2023-01-05T22:05:22.111Z,10.80
2023-01-05T22:07:50.303Z,10.90
2023-01-05T22:10:19.702Z,10.80
2023-01-05T22:12:47.758Z,10.80
2023-01-05T22:15:15.628Z,10.80
2023-01-05T22:17:43.909Z,10.80
2023-01-05T22:20:13.977Z,10.80
2023-01-05T22:22:42.005Z,10.80
2023-01-05T22:25:10.457Z,10.70
2023-01-05T22:27:40.350Z,10.70
2023-01-05T22:30:09.605Z,10.70
2023-01-05T22:32:38.338Z,10.70
2023-01-05T22:35:06.888Z,10.60
2023-01-05T22:37:34.904Z,10.60
2023-01-05T22:40:02.920Z,10.60
2023-01-05T22:42:30.895Z,10.60
2023-01-05T22:45:00.736Z,10.60
2023-01-05T22:47:28.699Z,10.60
2023-01-05T22:49:56.637Z,10.60
2023-01-05T22:52:24.668Z,10.60
2023-01-05T22:54:53.057Z,10.60
2023-01-05T22:57:20.879Z,10.70
2023-01-05T22:59:48.628Z,10.60
2023-01-05T23:02:17.834Z,10.60
2023-01-05T23:04:45.596Z,10.60
2023-01-05T23:07:13.666Z,10.60
2023-01-05T23:09:41.552Z,10.70
2023-01-05T23:12:10.637Z,10.70
2023-01-05T23:14:39.772Z,10.80
2023-01-05T23:17:12.458Z,10.80
2023-01-05T23:19:42.270Z,10.80
2023-01-05T23:22:11.587Z,10.80
2023-01-05T23:24:39.681Z,10.80
2023-01-05T23:27:07.407Z,10.80
2023-01-05T23:29:35.324Z,10.80
2023-01-05T23:32:03.373Z,10.80
2023-01-05T23:34:31.238Z,10.80
2023-01-05T23:37:00.348Z,10.80
2023-01-05T23:39:28.025Z,10.80
2023-01-05T23:41:55.781Z,10.80
2023-01-05T23:44:23.526Z,10.80
2023-01-05T23:46:57.118Z,10.80
2023-01-05T23:49:32.710Z,10.80
2023-01-05T23:52:12.504Z,10.80
2023-01-05T23:54:45.580Z,10.80
2023-01-05T23:57:21.874Z,10.90
2023-01-05T23:59:57.625Z,10.80
